Time;durP1;ratioP1;P1;durP2;ratioP2;P2;SDS_P1;SDS_P2;PMS_P1;PMS_P2;Temp;Humidity;BMP_temperature;BMP_pressure;BME280_temperature;BME280_humidity;BME280_pressure;Samples;Min_cycle;Max_cycle;Signal;HPM_P1;HPM_P2
2022/07/09 00:01:59;;;;;;;9.87;3.67;;;14.70;99.90;;;;;;4968767;28;20321;-85
2022/07/09 00:04:26;;;;;;;10.90;3.87;;;14.80;99.90;;;;;;4971357;28;20235;-85
2022/07/09 00:06:54;;;;;;;12.07;3.83;;;14.70;99.90;;;;;;4966383;28;20239;-83
2022/07/09 00:09:20;;;;;;;9.80;4.07;;;14.70;99.90;;;;;;4987720;28;20717;-84
2022/07/09 00:11:47;;;;;;;11.87;3.70;;;14.70;99.90;;;;;;4984867;28;20229;-85
2022/07/09 00:14:14;;;;;;;10.77;4.30;;;14.70;99.90;;;;;;4980486;28;20225;-85
2022/07/09 00:16:40;;;;;;;8.53;3.60;;;14.70;99.90;;;;;;4984396;28;20261;-87
2022/07/09 00:19:07;;;;;;;9.60;3.83;;;14.70;99.90;;;;;;4981844;28;20317;-87
2022/07/09 00:21:34;;;;;;;9.80;3.73;;;14.60;99.90;;;;;;4984943;28;20230;-86
2022/07/09 00:24:02;;;;;;;8.40;3.20;;;14.60;99.90;;;;;;4967907;28;20233;-85
2022/07/09 00:26:28;;;;;;;8.57;3.53;;;14.50;99.90;;;;;;4959364;28;20322;-87
2022/07/09 00:28:55;;;;;;;11.97;3.90;;;14.50;99.90;;;;;;4981571;28;20222;-86
2022/07/09 00:31:22;;;;;;;11.03;3.60;;;14.40;99.90;;;;;;4978642;28;20229;-83
2022/07/09 00:33:48;;;;;;;10.33;3.80;;;14.40;99.90;;;;;;4977605;28;20232;-85
2022/07/09 00:36:15;;;;;;;9.40;3.90;;;14.30;99.90;;;;;;4981780;28;20220;-84
2022/07/09 00:38:42;;;;;;;9.80;4.37;;;14.30;99.90;;;;;;4985604;28;20233;-87
2022/07/09 00:41:10;;;;;;;13.83;4.20;;;14.30;99.90;;;;;;4966236;28;20319;-86
2022/07/09 00:43:37;;;;;;;9.67;4.37;;;14.30;99.90;;;;;;4964206;28;20239;-86
2022/07/09 00:46:03;;;;;;;7.73;3.67;;;14.20;99.90;;;;;;4960097;28;20223;-87
2022/07/09 00:48:30;;;;;;;13.47;4.80;;;14.30;99.90;;;;;;4984397;28;20798;-85
2022/07/09 00:50:57;;;;;;;11.73;4.30;;;14.20;99.90;;;;;;4983328;28;20234;-86
2022/07/09 00:53:25;;;;;;;13.43;4.27;;;14.20;99.90;;;;;;4985761;28;20314;-85
2022/07/09 00:55:54;;;;;;;11.30;4.20;;;14.20;99.90;;;;;;4970956;28;20230;-84
2022/07/09 00:58:22;;;;;;;12.67;3.83;;;14.20;99.90;;;;;;4983029;28;20316;-85
2022/07/09 01:00:50;;;;;;;9.33;3.77;;;14.20;99.90;;;;;;4994092;28;20239;-85
2022/07/09 01:03:16;;;;;;;9.67;4.23;;;14.20;99.90;;;;;;4977601;28;20229;-85
2022/07/09 01:05:43;;;;;;;8.87;3.70;;;14.20;99.90;;;;;;4983216;28;20227;-84
2022/07/09 01:08:10;;;;;;;10.93;4.07;;;14.30;99.90;;;;;;4980409;28;20700;-83
2022/07/09 01:10:37;;;;;;;8.50;3.93;;;14.20;99.90;;;;;;4962961;28;20228;-84
2022/07/09 01:13:05;;;;;;;8.97;3.90;;;14.30;99.90;;;;;;4959896;28;20965;-85
2022/07/09 01:15:34;;;;;;;9.30;3.63;;;14.30;99.90;;;;;;4973438;28;20234;-84
2022/07/09 01:18:01;;;;;;;11.37;3.83;;;14.40;99.90;;;;;;4981120;28;20322;-84
2022/07/09 01:20:29;;;;;;;11.37;3.73;;;14.30;99.90;;;;;;4985064;28;20303;-84
2022/07/09 01:22:57;;;;;;;10.67;3.93;;;14.40;99.90;;;;;;4965914;28;20288;-85
2022/07/09 01:25:35;;;;;;;8.23;3.90;;;14.40;99.90;;;;;;4965949;28;20231;-85
2022/07/09 01:28:02;;;;;;;8.90;4.40;;;14.50;99.90;;;;;;4981682;28;20280;-88
2022/07/09 01:30:29;;;;;;;8.17;3.60;;;14.50;99.90;;;;;;4983422;28;20316;-88
2022/07/09 01:32:56;;;;;;;8.30;3.90;;;14.50;99.90;;;;;;4985568;28;20701;-87
2022/07/09 01:35:23;;;;;;;10.97;4.23;;;14.50;99.90;;;;;;4981906;28;20649;-87
2022/07/09 01:37:51;;;;;;;11.37;3.93;;;14.50;99.90;;;;;;4983293;28;20232;-86
2022/07/09 01:40:19;;;;;;;9.20;3.67;;;14.50;99.90;;;;;;4977707;28;20290;-87
2022/07/09 01:42:46;;;;;;;8.93;4.60;;;14.60;99.90;;;;;;4968339;28;20294;-87
2022/07/09 01:45:13;;;;;;;11.40;4.00;;;14.60;99.90;;;;;;4978986;28;20230;-87
2022/07/09 01:47:40;;;;;;;9.43;4.03;;;14.60;99.90;;;;;;4969879;28;20692;-87
2022/07/09 01:50:08;;;;;;;12.83;4.53;;;14.60;99.90;;;;;;4964369;28;20336;-86
2022/07/09 01:52:35;;;;;;;10.10;4.40;;;14.60;99.90;;;;;;4966793;28;20671;-87
2022/07/09 01:55:04;;;;;;;12.80;4.50;;;14.70;99.90;;;;;;4979611;28;20227;-87
2022/07/09 01:57:30;;;;;;;11.40;5.00;;;14.70;99.90;;;;;;4978097;28;20232;-87
2022/07/09 01:59:57;;;;;;;9.70;4.50;;;14.70;99.90;;;;;;4982879;28;20705;-85
2022/07/09 02:02:24;;;;;;;10.97;3.90;;;14.70;99.90;;;;;;4963347;28;20265;-85
2022/07/09 02:04:50;;;;;;;10.40;3.83;;;14.70;99.90;;;;;;4977235;28;20241;-84
2022/07/09 02:07:17;;;;;;;11.33;3.73;;;14.70;99.90;;;;;;4973163;28;20231;-85
2022/07/09 02:09:44;;;;;;;13.37;4.20;;;14.70;99.90;;;;;;4978727;28;20234;-85
2022/07/09 02:12:12;;;;;;;11.63;3.73;;;14.70;99.90;;;;;;4983110;28;20317;-85
2022/07/09 02:14:39;;;;;;;10.00;3.63;;;14.70;99.90;;;;;;4968546;28;20326;-85
2022/07/09 02:17:06;;;;;;;11.13;4.00;;;14.70;99.90;;;;;;4980338;28;20744;-84
2022/07/09 02:19:32;;;;;;;13.47;4.63;;;14.70;99.90;;;;;;4983788;28;20271;-86
2022/07/09 02:21:59;;;;;;;9.80;4.53;;;14.70;99.90;;;;;;4988291;28;20237;-87
2022/07/09 02:24:26;;;;;;;10.73;4.10;;;14.70;99.90;;;;;;4971683;28;20688;-87
2022/07/09 02:26:53;;;;;;;11.47;3.90;;;14.70;99.90;;;;;;4965935;28;20241;-86
2022/07/09 02:29:21;;;;;;;11.67;3.77;;;14.70;99.90;;;;;;4984968;28;20222;-87
2022/07/09 02:31:48;;;;;;;9.33;3.70;;;14.70;99.90;;;;;;4984488;28;20223;-87
2022/07/09 02:34:14;;;;;;;11.10;4.10;;;14.70;99.90;;;;;;4973373;28;20257;-87
2022/07/09 02:36:41;;;;;;;13.13;4.13;;;14.70;99.90;;;;;;4983776;28;20809;-86
2022/07/09 02:39:08;;;;;;;11.23;4.20;;;14.70;99.90;;;;;;4987282;28;20644;-85
2022/07/09 02:41:35;;;;;;;10.47;3.70;;;14.70;99.90;;;;;;4969075;28;20269;-85
2022/07/09 02:44:01;;;;;;;13.63;4.00;;;14.70;99.90;;;;;;4967371;28;20305;-87
2022/07/09 02:46:29;;;;;;;9.30;3.90;;;14.70;99.90;;;;;;4968228;28;20227;-85
2022/07/09 02:48:56;;;;;;;9.97;4.03;;;14.70;99.90;;;;;;4988760;28;20657;-85
2022/07/09 02:51:23;;;;;;;13.00;4.60;;;14.70;99.90;;;;;;4987451;28;20280;-84
2022/07/09 02:53:49;;;;;;;11.20;4.40;;;14.80;99.90;;;;;;4990342;28;20342;-86
2022/07/09 02:56:16;;;;;;;11.03;4.20;;;14.80;99.90;;;;;;4981220;28;21076;-84
2022/07/09 02:58:43;;;;;;;12.33;4.13;;;14.80;99.90;;;;;;4975089;28;20407;-84
2022/07/09 03:01:09;;;;;;;9.50;4.17;;;14.80;99.90;;;;;;4991090;28;20730;-85
2022/07/09 03:03:37;;;;;;;9.33;4.03;;;14.80;99.90;;;;;;4989262;28;20233;-87
2022/07/09 03:06:05;;;;;;;10.77;4.43;;;14.80;99.90;;;;;;4967519;28;20228;-87
2022/07/09 03:08:32;;;;;;;7.67;3.73;;;14.80;99.90;;;;;;4981823;28;20252;-86
2022/07/09 03:10:59;;;;;;;10.33;4.17;;;14.80;99.90;;;;;;4968896;28;20606;-86
2022/07/09 03:13:26;;;;;;;15.10;4.67;;;14.80;99.90;;;;;;4976773;28;20318;-86
2022/07/09 03:15:52;;;;;;;12.03;4.13;;;14.80;99.90;;;;;;4974227;28;20681;-86
2022/07/09 03:18:19;;;;;;;10.10;3.40;;;14.80;99.90;;;;;;4986622;28;20241;-86
2022/07/09 03:20:48;;;;;;;11.03;4.23;;;14.80;99.90;;;;;;4971063;28;20234;-87
2022/07/09 03:23:15;;;;;;;12.40;3.90;;;14.80;99.90;;;;;;4983540;28;20223;-85
2022/07/09 03:25:42;;;;;;;10.43;3.87;;;14.80;99.90;;;;;;4982987;28;20226;-86
2022/07/09 03:28:09;;;;;;;9.73;4.40;;;14.80;99.90;;;;;;4964917;28;20326;-86
2022/07/09 03:30:36;;;;;;;10.43;4.33;;;14.80;99.90;;;;;;4986060;28;20234;-87
2022/07/09 03:33:03;;;;;;;8.67;4.00;;;14.80;99.90;;;;;;4966988;28;20227;-86
2022/07/09 03:35:30;;;;;;;8.23;4.17;;;14.80;99.90;;;;;;4986798;28;20564;-87
2022/07/09 03:37:58;;;;;;;9.97;3.70;;;14.80;99.90;;;;;;4971037;28;20229;-89
2022/07/09 03:40:25;;;;;;;13.70;4.00;;;14.80;99.90;;;;;;4982624;28;20241;-85
2022/07/09 03:42:52;;;;;;;11.23;3.80;;;14.80;99.90;;;;;;4970227;28;20601;-86
2022/07/09 03:45:19;;;;;;;11.07;3.83;;;14.80;99.90;;;;;;4985521;28;20759;-84
2022/07/09 03:47:48;;;;;;;10.67;4.10;;;14.80;99.90;;;;;;4967842;28;20231;-84
2022/07/09 03:50:15;;;;;;;9.90;3.57;;;14.80;99.90;;;;;;4989644;28;20367;-84
2022/07/09 03:52:42;;;;;;;9.20;3.57;;;14.80;99.90;;;;;;4969678;28;20257;-83
2022/07/09 03:55:10;;;;;;;8.97;4.13;;;14.90;99.90;;;;;;4970224;28;20828;-83
2022/07/09 03:57:36;;;;;;;7.20;3.47;;;14.90;99.90;;;;;;4980184;28;20259;-83
2022/07/09 04:00:05;;;;;;;11.13;4.33;;;14.90;99.90;;;;;;4987993;28;20231;-85
2022/07/09 04:02:39;;;;;;;10.07;3.57;;;14.90;99.90;;;;;;4987270;28;20224;-82
2022/07/09 04:05:07;;;;;;;7.70;3.83;;;14.90;99.90;;;;;;4992872;28;20242;-82
2022/07/09 04:07:33;;;;;;;8.10;4.27;;;14.90;99.90;;;;;;4993989;28;20243;-82
2022/07/09 04:10:00;;;;;;;10.73;3.87;;;14.90;99.90;;;;;;4992936;28;20230;-82
2022/07/09 04:12:28;;;;;;;9.33;4.00;;;14.90;99.90;;;;;;4992184;28;20291;-81
2022/07/09 04:14:55;;;;;;;9.10;4.20;;;14.90;99.90;;;;;;4993705;28;20322;-82
2022/07/09 04:17:22;;;;;;;11.27;4.13;;;14.90;99.90;;;;;;4975460;28;20239;-82
2022/07/09 04:19:48;;;;;;;11.83;4.87;;;14.90;99.90;;;;;;4976702;28;20231;-82
2022/07/09 04:22:15;;;;;;;10.30;4.33;;;14.90;99.90;;;;;;4970071;28;20239;-84
2022/07/09 04:24:42;;;;;;;10.33;4.27;;;14.90;99.90;;;;;;4980744;28;20238;-84
2022/07/09 04:27:08;;;;;;;9.50;4.50;;;14.90;99.90;;;;;;4983480;28;20700;-84
2022/07/09 04:29:36;;;;;;;8.20;4.17;;;14.90;99.90;;;;;;4985726;28;20235;-84
2022/07/09 04:32:04;;;;;;;8.03;4.43;;;14.90;99.90;;;;;;4985732;28;20235;-84
2022/07/09 04:34:31;;;;;;;8.97;4.13;;;15.00;99.90;;;;;;4968406;28;20324;-84
2022/07/09 04:36:58;;;;;;;9.03;4.07;;;15.00;99.90;;;;;;4973299;28;20231;-83
2022/07/09 04:39:24;;;;;;;9.60;4.13;;;15.00;99.90;;;;;;4981356;28;20242;-84
2022/07/09 04:41:51;;;;;;;10.40;3.90;;;15.10;99.90;;;;;;4985540;28;20244;-84
2022/07/09 04:44:18;;;;;;;11.27;3.90;;;15.10;99.90;;;;;;4970208;28;20853;-85
2022/07/09 04:46:46;;;;;;;7.23;3.70;;;15.10;99.90;;;;;;4986716;28;20230;-83
2022/07/09 04:49:13;;;;;;;8.20;3.77;;;15.10;99.90;;;;;;4984932;28;20227;-84
2022/07/09 04:51:39;;;;;;;9.73;3.83;;;15.10;99.90;;;;;;4986260;28;20306;-83
2022/07/09 04:54:06;;;;;;;8.83;3.67;;;15.20;99.90;;;;;;4980246;28;20230;-84
2022/07/09 04:56:33;;;;;;;9.17;3.80;;;15.20;99.90;;;;;;4983480;28;20224;-83
2022/07/09 04:59:02;;;;;;;9.37;3.80;;;15.20;99.90;;;;;;4986165;28;20229;-84
2022/07/09 05:01:29;;;;;;;10.77;3.80;;;15.20;99.90;;;;;;4981677;28;20329;-83
2022/07/09 05:03:58;;;;;;;7.93;3.43;;;15.30;99.90;;;;;;4978951;28;20218;-84
2022/07/09 05:06:25;;;;;;;7.93;3.10;;;15.20;99.90;;;;;;4981130;28;20228;-84
2022/07/09 05:08:51;;;;;;;9.40;3.30;;;15.20;99.90;;;;;;4984051;28;20235;-87
2022/07/09 05:11:18;;;;;;;6.00;3.13;;;15.30;99.90;;;;;;4968026;28;20613;-86
2022/07/09 05:13:46;;;;;;;10.67;3.70;;;15.30;99.90;;;;;;4980144;28;20234;-87
2022/07/09 05:16:12;;;;;;;8.03;3.00;;;15.40;99.90;;;;;;4968842;28;20254;-87
2022/07/09 05:18:39;;;;;;;6.43;2.97;;;15.40;99.90;;;;;;4985028;28;20251;-85
2022/07/09 05:21:07;;;;;;;5.77;2.93;;;15.40;99.90;;;;;;4984249;28;20318;-85
2022/07/09 05:23:34;;;;;;;6.90;3.47;;;15.50;99.90;;;;;;4983133;28;20732;-85
2022/07/09 05:26:01;;;;;;;9.87;3.27;;;15.50;99.90;;;;;;4978672;28;20603;-85
2022/07/09 05:28:28;;;;;;;4.70;3.20;;;15.60;99.90;;;;;;4989673;28;20237;-85
2022/07/09 05:30:54;;;;;;;10.27;3.37;;;15.60;99.90;;;;;;4964082;28;20629;-87
2022/07/09 05:33:21;;;;;;;8.70;2.70;;;15.70;99.90;;;;;;4985108;28;20237;-86
2022/07/09 05:35:48;;;;;;;7.53;2.97;;;15.70;99.90;;;;;;4985661;28;20241;-86
2022/07/09 05:38:16;;;;;;;7.50;2.60;;;15.70;99.90;;;;;;4984135;28;20236;-86
2022/07/09 05:40:42;;;;;;;6.07;3.00;;;15.80;99.90;;;;;;4983190;28;20298;-85
2022/07/09 05:43:09;;;;;;;5.37;2.43;;;15.80;99.90;;;;;;4985336;28;20236;-85
2022/07/09 05:45:36;;;;;;;6.63;2.30;;;15.90;99.90;;;;;;4968354;28;20233;-85
2022/07/09 05:48:03;;;;;;;8.00;2.73;;;15.90;99.90;;;;;;4979794;28;20254;-85
2022/07/09 05:50:29;;;;;;;6.37;2.33;;;15.90;99.90;;;;;;4985832;28;20259;-86
2022/07/09 05:52:56;;;;;;;6.20;2.10;;;16.00;99.90;;;;;;4980132;28;20769;-86
2022/07/09 05:55:24;;;;;;;4.87;2.50;;;16.00;99.90;;;;;;4967257;28;20288;-86
2022/07/09 05:57:51;;;;;;;5.07;2.40;;;16.10;99.90;;;;;;4970776;28;20233;-85
2022/07/09 06:00:17;;;;;;;6.23;2.30;;;16.10;99.90;;;;;;4986233;28;20244;-86
2022/07/09 06:02:44;;;;;;;4.63;2.33;;;16.10;99.90;;;;;;4991252;28;20239;-83
2022/07/09 06:05:11;;;;;;;4.67;2.20;;;16.10;99.90;;;;;;4989375;28;20229;-87
2022/07/09 06:07:44;;;;;;;7.63;2.57;;;16.10;99.90;;;;;;5006206;28;20237;-87
2022/07/09 06:10:12;;;;;;;5.57;2.63;;;16.20;99.90;;;;;;4988625;28;20661;-86
2022/07/09 06:12:41;;;;;;;4.77;2.23;;;16.20;99.90;;;;;;4993331;28;20234;-86
2022/07/09 06:15:10;;;;;;;6.70;2.57;;;16.20;99.90;;;;;;4973908;28;20267;-84
2022/07/09 06:17:36;;;;;;;7.33;2.97;;;16.30;99.90;;;;;;4995864;28;20245;-85
2022/07/09 06:20:04;;;;;;;5.90;2.90;;;16.30;99.90;;;;;;4974484;28;20237;-85
2022/07/09 06:22:30;;;;;;;4.33;2.50;;;16.20;99.90;;;;;;4986541;28;20226;-85
2022/07/09 06:24:57;;;;;;;5.93;2.97;;;16.20;99.90;;;;;;4987202;28;20702;-85
2022/07/09 06:27:24;;;;;;;6.87;3.00;;;16.20;99.90;;;;;;4981142;28;20240;-85
2022/07/09 06:29:52;;;;;;;6.23;3.00;;;16.10;99.90;;;;;;4988065;28;20232;-85
2022/07/09 06:32:19;;;;;;;6.57;3.07;;;16.20;99.90;;;;;;4990897;28;20224;-87
2022/07/09 06:34:46;;;;;;;5.73;2.93;;;16.20;99.90;;;;;;4988283;28;20236;-84
2022/07/09 06:37:13;;;;;;;8.27;3.43;;;16.20;99.90;;;;;;4974913;28;20236;-87
2022/07/09 06:39:45;;;;;;;6.07;3.07;;;16.20;99.90;;;;;;4988412;28;20702;-84
2022/07/09 06:42:13;;;;;;;6.90;3.00;;;16.20;99.90;;;;;;4988943;28;20237;-87
2022/07/09 06:44:45;;;;;;;5.00;3.17;;;16.30;99.90;;;;;;4972160;28;20229;-86
2022/07/09 06:47:14;;;;;;;4.73;3.37;;;16.30;99.90;;;;;;4983512;28;20242;-86
2022/07/09 06:49:40;;;;;;;6.13;3.50;;;16.40;99.90;;;;;;4994855;28;20232;-85
2022/07/09 06:52:08;;;;;;;5.93;3.23;;;16.40;99.90;;;;;;4994878;28;20226;-88
2022/07/09 06:54:35;;;;;;;7.37;3.47;;;16.50;99.90;;;;;;4988779;28;20233;-89
2022/07/09 06:57:02;;;;;;;4.57;2.93;;;16.60;99.90;;;;;;4993513;28;20238;-87
2022/07/09 06:59:29;;;;;;;7.50;3.17;;;16.70;99.90;;;;;;4970308;28;20257;-87
2022/07/09 07:01:56;;;;;;;5.70;3.13;;;16.70;99.90;;;;;;4985493;28;20661;-84
2022/07/09 07:04:25;;;;;;;4.87;2.90;;;16.90;99.90;;;;;;4982870;28;20230;-89
2022/07/09 07:06:51;;;;;;;5.67;2.87;;;16.90;99.90;;;;;;4972402;28;20238;-88
2022/07/09 07:09:21;;;;;;;5.63;2.80;;;17.00;99.90;;;;;;4984161;28;20230;-86
2022/07/09 07:11:48;;;;;;;4.93;2.73;;;17.00;99.90;;;;;;4987556;28;20229;-90
2022/07/09 07:14:14;;;;;;;3.33;2.73;;;17.10;99.90;;;;;;4992220;28;20344;-86
2022/07/09 07:16:41;;;;;;;3.80;2.47;;;17.20;99.90;;;;;;4984234;28;20236;-86
2022/07/09 07:19:08;;;;;;;4.70;2.70;;;17.30;99.90;;;;;;4990533;28;20314;-87
2022/07/09 07:21:36;;;;;;;4.97;2.27;;;17.40;99.90;;;;;;4986471;28;20286;-87
2022/07/09 07:24:03;;;;;;;4.20;2.23;;;17.50;99.90;;;;;;4969078;28;20730;-87
2022/07/09 07:26:30;;;;;;;3.00;2.00;;;17.50;99.90;;;;;;4967621;28;20237;-87
2022/07/09 07:28:57;;;;;;;4.93;2.03;;;17.60;99.90;;;;;;4974274;28;20236;-88
2022/07/09 07:31:24;;;;;;;5.83;1.97;;;17.60;99.90;;;;;;4992054;28;20682;-87
2022/07/09 07:33:51;;;;;;;3.60;2.33;;;17.60;99.90;;;;;;4986846;28;20230;-88
2022/07/09 07:36:18;;;;;;;4.27;2.00;;;17.70;99.90;;;;;;4986100;28;20230;-86
2022/07/09 07:38:47;;;;;;;6.33;2.53;;;17.70;99.90;;;;;;4983298;28;21194;-82
2022/07/09 07:41:16;;;;;;;4.90;2.40;;;17.80;99.90;;;;;;4984415;28;20218;-87
2022/07/09 07:43:42;;;;;;;4.23;2.00;;;17.80;99.90;;;;;;4965514;28;20479;-85
2022/07/09 07:46:09;;;;;;;2.27;1.70;;;17.80;99.90;;;;;;4969250;28;20229;-83
2022/07/09 07:48:36;;;;;;;3.07;1.77;;;17.90;99.90;;;;;;4987210;28;20237;-83
2022/07/09 07:51:03;;;;;;;6.67;2.27;;;18.00;99.90;;;;;;4988263;28;20232;-83
2022/07/09 07:53:31;;;;;;;2.57;1.90;;;18.00;99.90;;;;;;4970349;28;20855;-85
2022/07/09 07:56:01;;;;;;;5.47;2.15;;;18.20;99.90;;;;;;4984332;28;20222;-84
2022/07/09 07:58:28;;;;;;;7.00;2.00;;;18.40;99.90;;;;;;4986210;28;20225;-85
2022/07/09 08:00:55;;;;;;;4.03;2.10;;;18.60;99.90;;;;;;4987963;28;20214;-86
2022/07/09 08:03:22;;;;;;;2.67;1.90;;;18.70;99.90;;;;;;4966597;28;20230;-86
2022/07/09 08:05:48;;;;;;;3.83;2.00;;;18.80;99.90;;;;;;4966493;28;20235;-84
2022/07/09 08:08:15;;;;;;;3.40;1.70;;;18.90;99.90;;;;;;4986317;28;20302;-86
2022/07/09 08:10:42;;;;;;;4.13;2.13;;;19.00;99.90;;;;;;4983157;28;20291;-86
2022/07/09 08:13:11;;;;;;;4.88;1.70;;;19.20;99.90;;;;;;4977207;28;20237;-87
2022/07/09 08:15:38;;;;;;;2.95;1.98;;;19.60;99.90;;;;;;4987459;28;20891;-83
2022/07/09 08:18:05;;;;;;;4.03;1.77;;;20.10;99.90;;;;;;4972515;28;20226;-85
2022/07/09 08:20:32;;;;;;;2.67;1.70;;;20.60;99.90;;;;;;4986776;28;20272;-85
2022/07/09 08:22:59;;;;;;;2.95;1.45;;;21.20;99.90;;;;;;4985842;28;20698;-85
2022/07/09 08:25:26;;;;;;;3.40;1.63;;;21.70;99.90;;;;;;4990066;28;20222;-86
2022/07/09 08:27:52;;;;;;;2.63;1.35;;;22.00;99.90;;;;;;4973223;28;20234;-86
2022/07/09 08:30:21;;;;;;;4.47;1.50;;;22.10;99.90;;;;;;4981280;28;20234;-82
2022/07/09 08:32:48;;;;;;;5.05;1.67;;;22.00;99.60;;;;;;4973807;28;20234;-86
2022/07/09 08:35:15;;;;;;;5.90;2.17;;;21.80;99.70;;;;;;4981171;28;20255;-82
2022/07/09 08:37:42;;;;;;;4.68;1.83;;;21.50;99.90;;;;;;4985444;28;20243;-85
2022/07/09 08:40:09;;;;;;;6.22;1.98;;;21.20;99.90;;;;;;4981702;28;20709;-87
2022/07/09 08:42:37;;;;;;;4.43;1.73;;;20.80;99.90;;;;;;4976724;28;20592;-86
2022/07/09 08:45:06;;;;;;;3.92;1.80;;;20.50;99.90;;;;;;4978524;28;20226;-85
2022/07/09 08:47:35;;;;;;;3.28;1.80;;;20.10;99.90;;;;;;4984349;28;20748;-85
2022/07/09 08:50:02;;;;;;;7.25;2.17;;;19.90;99.90;;;;;;4993035;28;20327;-84
2022/07/09 08:52:29;;;;;;;4.55;2.10;;;19.80;99.90;;;;;;4984105;28;20296;-85
2022/07/09 08:54:56;;;;;;;5.05;1.90;;;19.80;99.90;;;;;;4988085;28;20239;-85
2022/07/09 08:57:23;;;;;;;3.17;1.80;;;19.90;99.90;;;;;;4983948;28;20226;-85
2022/07/09 08:59:50;;;;;;;2.88;1.70;;;20.10;99.90;;;;;;4984363;28;20249;-85
2022/07/09 09:02:19;;;;;;;3.83;1.83;;;20.10;99.90;;;;;;4982063;28;20230;-85
2022/07/09 09:04:47;;;;;;;2.72;1.60;;;20.20;99.90;;;;;;4961296;28;20308;-84
2022/07/09 09:07:15;;;;;;;2.78;1.70;;;20.20;99.90;;;;;;4986214;28;20236;-84
2022/07/09 09:09:42;;;;;;;4.25;1.70;;;20.30;99.90;;;;;;4982279;28;20834;-84
2022/07/09 09:12:09;;;;;;;3.00;1.58;;;20.40;99.90;;;;;;4971567;28;20226;-84
2022/07/09 09:14:36;;;;;;;3.67;1.63;;;20.50;99.90;;;;;;4983389;28;20583;-85
2022/07/09 09:17:05;;;;;;;2.45;1.30;;;20.80;99.90;;;;;;4986613;28;20229;-85
2022/07/09 09:19:32;;;;;;;1.92;1.10;;;21.20;99.90;;;;;;4981543;28;20238;-84
2022/07/09 09:22:00;;;;;;;3.92;1.38;;;21.70;99.90;;;;;;4982990;28;20241;-85
2022/07/09 09:24:29;;;;;;;2.10;1.00;;;22.20;99.90;;;;;;4971838;28;20222;-86
2022/07/09 09:26:58;;;;;;;2.60;1.30;;;22.60;99.90;;;;;;4970788;28;20240;-85
2022/07/09 09:29:24;;;;;;;2.60;1.00;;;23.00;99.90;;;;;;4981342;28;20271;-87
2022/07/09 09:31:52;;;;;;;4.57;1.20;;;23.10;99.90;;;;;;4987006;28;20232;-84
2022/07/09 09:34:19;;;;;;;1.63;1.08;;;23.00;99.10;;;;;;4992810;28;20309;-85
2022/07/09 09:36:47;;;;;;;1.63;1.10;;;22.80;98.50;;;;;;4970017;28;20253;-87
2022/07/09 09:39:17;;;;;;;4.28;1.13;;;22.60;98.10;;;;;;4996223;28;20226;-87
2022/07/09 09:41:46;;;;;;;1.55;0.98;;;22.30;98.20;;;;;;4995304;28;20230;-86
2022/07/09 09:44:15;;;;;;;2.22;1.20;;;22.00;98.20;;;;;;4980247;28;20293;-86
2022/07/09 09:46:43;;;;;;;1.35;1.00;;;21.90;98.60;;;;;;4983652;28;20227;-85
2022/07/09 09:49:12;;;;;;;3.42;1.45;;;21.70;99.70;;;;;;4977893;28;20222;-86
2022/07/09 09:51:47;;;;;;;3.33;0.98;;;21.70;99.40;;;;;;4982090;28;20226;-83
2022/07/09 09:54:16;;;;;;;2.45;1.17;;;21.70;98.50;;;;;;4994698;28;20228;-84
2022/07/09 09:56:44;;;;;;;3.78;1.30;;;21.60;98.60;;;;;;4990301;28;20222;-84
2022/07/09 09:59:12;;;;;;;2.30;1.27;;;21.70;98.20;;;;;;4979572;28;20218;-86
2022/07/09 10:01:39;;;;;;;2.28;1.08;;;21.50;98.10;;;;;;4988780;28;20237;-84
2022/07/09 10:04:06;;;;;;;4.57;1.45;;;21.50;98.20;;;;;;4992607;28;20333;-84
2022/07/09 10:06:33;;;;;;;3.08;1.20;;;21.40;98.00;;;;;;4987357;28;20223;-81
2022/07/09 10:09:02;;;;;;;3.30;0.98;;;21.40;98.30;;;;;;4988075;28;20218;-79
2022/07/09 10:11:40;;;;;;;3.13;1.30;;;21.40;98.40;;;;;;4972400;28;20222;-82
2022/07/09 10:14:07;;;;;;;1.75;1.10;;;21.50;98.20;;;;;;4971703;28;20230;-84
2022/07/09 10:16:39;;;;;;;1.38;0.80;;;21.90;98.50;;;;;;4985599;28;20253;-84
2022/07/09 10:19:07;;;;;;;3.75;1.00;;;22.30;97.50;;;;;;4992128;28;20268;-84
2022/07/09 10:21:40;;;;;;;1.88;0.88;;;22.70;96.90;;;;;;4983557;28;20230;-85
2022/07/09 10:24:08;;;;;;;2.22;1.00;;;23.20;95.90;;;;;;4981292;28;20226;-81
2022/07/09 10:26:47;;;;;;;1.55;0.98;;;23.50;95.20;;;;;;4974016;28;20935;-83
2022/07/09 10:29:22;;;;;;;2.80;1.20;;;23.70;93.90;;;;;;4974652;28;20222;-85
2022/07/09 10:31:49;;;;;;;2.65;0.80;;;23.70;92.80;;;;;;4976933;28;20223;-85
2022/07/09 10:34:37;;;;;;;3.92;1.23;;;23.50;92.90;;;;;;4992986;28;20237;-84
2022/07/09 10:37:05;;;;;;;3.15;1.02;;;23.30;92.90;;;;;;4985677;28;20235;-84
2022/07/09 10:39:32;;;;;;;3.03;1.00;;;23.20;93.90;;;;;;4988189;28;20234;-84
2022/07/09 10:42:02;;;;;;;2.15;1.17;;;23.20;94.10;;;;;;4982268;28;21161;-86
2022/07/09 10:44:34;;;;;;;3.10;0.90;;;23.30;93.90;;;;;;4988275;28;20226;-88
2022/07/09 10:47:02;;;;;;;3.08;0.93;;;23.50;93.90;;;;;;4988205;28;20729;-84
2022/07/09 10:49:29;;;;;;;2.92;0.88;;;23.70;93.60;;;;;;4991130;28;20224;-82
2022/07/09 10:51:58;;;;;;;3.72;1.02;;;24.00;93.30;;;;;;5009252;28;20301;-83
2022/07/09 10:54:25;;;;;;;2.67;1.02;;;24.30;92.90;;;;;;4989742;28;20222;-84
2022/07/09 10:56:52;;;;;;;2.78;1.02;;;24.60;92.40;;;;;;4989934;28;20229;-84
2022/07/09 10:59:21;;;;;;;3.55;1.15;;;24.90;92.00;;;;;;4986826;28;20218;-82
2022/07/09 11:01:48;;;;;;;1.58;0.80;;;25.10;91.30;;;;;;4975796;28;20237;-84
2022/07/09 11:04:25;;;;;;;3.13;0.80;;;25.20;90.00;;;;;;4997911;28;20697;-84
2022/07/09 11:06:52;;;;;;;2.38;0.90;;;25.20;90.00;;;;;;4984941;28;20222;-84
2022/07/09 11:09:18;;;;;;;1.77;0.80;;;25.30;90.60;;;;;;4980260;28;20222;-84
2022/07/09 11:11:47;;;;;;;1.40;0.73;;;25.40;90.10;;;;;;4993167;28;20230;-87
2022/07/09 11:14:14;;;;;;;2.25;0.80;;;25.60;90.00;;;;;;4985803;28;20333;-86
2022/07/09 11:16:42;;;;;;;2.35;0.88;;;25.90;90.10;;;;;;4984599;28;20222;-87
2022/07/09 11:19:16;;;;;;;3.58;1.20;;;26.30;89.40;;;;;;4983089;28;20234;-86
2022/07/09 11:21:43;;;;;;;1.38;0.70;;;26.60;88.80;;;;;;4981814;28;20240;-85
2022/07/09 11:24:16;;;;;;;4.32;0.80;;;26.90;88.00;;;;;;4963148;28;20225;-86
2022/07/09 11:26:43;;;;;;;3.25;0.93;;;27.20;85.70;;;;;;4979549;28;20235;-87
2022/07/09 11:29:11;;;;;;;2.72;0.70;;;27.50;86.10;;;;;;4980599;28;20225;-85
2022/07/09 11:31:46;;;;;;;2.38;0.85;;;27.70;84.90;;;;;;4944449;28;20222;-85
2022/07/09 11:34:16;;;;;;;1.70;0.88;;;27.80;83.70;;;;;;4975077;28;20340;-85
2022/07/09 11:36:43;;;;;;;1.13;0.73;;;27.70;85.80;;;;;;4987718;28;20229;-82
2022/07/09 11:39:11;;;;;;;1.60;0.95;;;27.50;82.20;;;;;;4991781;28;20283;-85
2022/07/09 11:41:42;;;;;;;1.88;0.70;;;27.20;80.60;;;;;;4975885;28;20230;-87
2022/07/09 11:44:09;;;;;;;1.52;0.80;;;26.70;79.80;;;;;;4982471;28;20770;-84
2022/07/09 11:46:37;;;;;;;1.08;0.70;;;26.10;79.60;;;;;;4992321;28;20264;-85
2022/07/09 11:49:16;;;;;;;1.30;0.93;;;25.50;79.90;;;;;;4981240;28;20235;-86
2022/07/09 11:51:43;;;;;;;3.75;0.82;;;24.90;81.50;;;;;;4961525;28;20225;-85
2022/07/09 11:54:10;;;;;;;4.00;0.85;;;24.50;82.50;;;;;;4985604;28;20314;-85
2022/07/09 11:56:43;;;;;;;1.60;1.00;;;24.20;84.00;;;;;;4979728;28;20276;-86
2022/07/09 11:59:10;;;;;;;2.42;0.77;;;23.90;85.00;;;;;;4976358;28;20672;-85
2022/07/09 12:01:37;;;;;;;2.35;0.65;;;23.80;86.10;;;;;;4988633;28;20222;-85
2022/07/09 12:04:05;;;;;;;1.63;0.70;;;23.80;87.50;;;;;;4981825;28;20629;-84
2022/07/09 12:06:33;;;;;;;1.08;0.77;;;24.00;87.20;;;;;;4969892;28;20640;-84
2022/07/09 12:09:01;;;;;;;1.52;0.70;;;24.20;86.40;;;;;;4967279;28;20222;-85
2022/07/09 12:11:28;;;;;;;1.45;0.80;;;24.40;85.60;;;;;;4987849;28;20222;-85
2022/07/09 12:13:55;;;;;;;2.65;0.57;;;24.60;85.80;;;;;;4985281;28;20753;-85
2022/07/09 12:16:22;;;;;;;0.50;0.50;;;24.80;84.80;;;;;;4983723;28;20230;-85
2022/07/09 12:18:49;;;;;;;2.80;0.65;;;25.10;84.30;;;;;;4987340;28;20336;-84
2022/07/09 12:21:16;;;;;;;0.90;0.60;;;25.20;82.50;;;;;;4965355;28;20255;-86
2022/07/09 12:23:44;;;;;;;2.72;0.80;;;25.10;81.50;;;;;;4974412;28;20222;-85
2022/07/09 12:26:10;;;;;;;0.90;0.60;;;25.00;81.00;;;;;;4969080;28;20237;-86
2022/07/09 12:28:37;;;;;;;2.20;0.80;;;24.80;81.40;;;;;;4983508;28;20288;-85
2022/07/09 12:31:04;;;;;;;2.45;0.80;;;24.60;80.60;;;;;;4981144;28;20226;-85
2022/07/09 12:33:31;;;;;;;1.60;0.80;;;24.50;81.00;;;;;;4988192;28;20230;-85
2022/07/09 12:35:58;;;;;;;2.03;0.65;;;24.30;81.00;;;;;;4984132;28;20333;-83
2022/07/09 12:38:24;;;;;;;1.63;0.80;;;24.30;82.10;;;;;;4982386;28;21088;-88
2022/07/09 12:40:52;;;;;;;2.42;0.77;;;24.30;82.20;;;;;;4989012;28;20328;-86
2022/07/09 12:43:19;;;;;;;3.10;0.88;;;24.40;81.80;;;;;;4969858;28;20217;-88
2022/07/09 12:45:46;;;;;;;3.33;0.85;;;24.50;81.10;;;;;;4987102;28;20238;-86
2022/07/09 12:48:13;;;;;;;1.38;0.90;;;24.60;81.30;;;;;;4986328;28;20620;-87